Time;durP1;ratioP1;P1;durP2;ratioP2;P2;SDS_P1;SDS_P2;PMS_P1;PMS_P2;Temp;Humidity;BMP_temperature;BMP_pressure;BME280_temperature;BME280_humidity;BME280_pressure;Samples;Min_cycle;Max_cycle;Signal;HPM_P1;HPM_P2
2023/03/07 00:00:38;;;;;;;25.73;11.60;;;4.60;99.90;;;;;;5055838;28;20029;-73
2023/03/07 00:03:04;;;;;;;29.77;13.07;;;4.50;99.90;;;;;;5056272;28;20029;-73
2023/03/07 00:05:31;;;;;;;28.92;12.38;;;4.50;99.90;;;;;;5055636;28;20183;-73
2023/03/07 00:07:57;;;;;;;25.77;12.88;;;4.40;99.90;;;;;;5054616;28;20025;-73
2023/03/07 00:10:23;;;;;;;26.38;11.43;;;4.40;99.90;;;;;;5055687;28;20025;-73
2023/03/07 00:12:49;;;;;;;29.85;12.57;;;4.40;99.90;;;;;;5054382;28;20053;-73
2023/03/07 00:15:16;;;;;;;22.88;12.23;;;4.30;99.90;;;;;;5055187;28;20029;-73
2023/03/07 00:17:42;;;;;;;31.10;13.32;;;4.30;99.90;;;;;;5055470;28;20104;-73
2023/03/07 00:20:15;;;;;;;25.38;12.35;;;4.20;99.90;;;;;;5055693;28;20117;-72
2023/03/07 00:22:42;;;;;;;28.27;12.48;;;4.20;99.90;;;;;;5055733;28;20037;-73
2023/03/07 00:25:09;;;;;;;30.92;12.23;;;4.20;99.90;;;;;;5054381;28;20415;-73
2023/03/07 00:27:35;;;;;;;22.15;11.38;;;4.20;99.90;;;;;;5055556;28;20108;-73
2023/03/07 00:30:03;;;;;;;29.80;12.65;;;4.20;99.90;;;;;;5055808;28;20429;-74
2023/03/07 00:32:29;;;;;;;27.33;12.55;;;4.20;99.90;;;;;;5055569;28;20384;-73
2023/03/07 00:34:56;;;;;;;30.17;13.25;;;4.10;99.90;;;;;;5055123;28;20387;-73
2023/03/07 00:37:22;;;;;;;31.35;13.40;;;4.00;99.90;;;;;;5054087;28;20115;-73
2023/03/07 00:39:47;;;;;;;29.23;12.55;;;3.90;99.90;;;;;;5054116;28;20155;-73
2023/03/07 00:42:13;;;;;;;27.88;11.38;;;3.90;99.90;;;;;;5055550;28;20050;-73
2023/03/07 00:44:39;;;;;;;24.88;11.48;;;3.80;99.90;;;;;;5055811;28;20024;-73
2023/03/07 00:47:05;;;;;;;27.33;12.80;;;3.60;99.90;;;;;;5053918;28;20024;-73
2023/03/07 00:49:30;;;;;;;27.65;12.93;;;3.50;99.90;;;;;;5053932;28;20063;-73
2023/03/07 00:51:56;;;;;;;23.73;11.82;;;3.40;99.90;;;;;;5055044;28;20061;-73
2023/03/07 00:54:22;;;;;;;26.33;12.52;;;3.30;99.90;;;;;;5055588;28;20029;-73
2023/03/07 00:56:47;;;;;;;25.40;12.38;;;3.20;99.90;;;;;;5054918;28;20024;-73
2023/03/07 00:59:13;;;;;;;24.67;12.65;;;3.10;99.90;;;;;;5054967;28;20028;-73
2023/03/07 01:01:38;;;;;;;28.92;13.10;;;3.00;99.90;;;;;;5054749;28;20028;-73
2023/03/07 01:04:04;;;;;;;25.58;12.38;;;2.90;99.90;;;;;;5054862;28;20025;-73
2023/03/07 01:06:32;;;;;;;33.40;14.07;;;2.80;99.90;;;;;;5053537;28;20098;-73
2023/03/07 01:09:00;;;;;;;29.25;12.88;;;2.70;99.90;;;;;;5053525;28;20021;-73
2023/03/07 01:11:28;;;;;;;29.37;13.13;;;2.60;99.90;;;;;;5054345;28;20081;-73
2023/03/07 01:13:58;;;;;;;25.50;11.23;;;2.50;99.90;;;;;;5054420;28;20033;-73
2023/03/07 01:16:27;;;;;;;27.75;12.07;;;2.30;99.90;;;;;;5052745;28;20036;-73
2023/03/07 01:18:56;;;;;;;28.05;13.93;;;2.20;99.90;;;;;;5053024;28;20124;-73
2023/03/07 01:21:27;;;;;;;29.23;12.45;;;2.10;99.90;;;;;;5053308;28;20056;-73
2023/03/07 01:23:54;;;;;;;27.98;12.52;;;2.00;99.90;;;;;;5054238;28;20067;-73
2023/03/07 01:26:26;;;;;;;28.92;12.77;;;2.00;99.90;;;;;;5053272;28;20052;-73
2023/03/07 01:28:54;;;;;;;26.73;12.15;;;1.90;99.90;;;;;;5053247;28;20485;-73
2023/03/07 01:31:20;;;;;;;33.25;13.43;;;1.80;99.90;;;;;;5054416;28;20064;-73
2023/03/07 01:33:51;;;;;;;30.23;13.25;;;1.60;99.90;;;;;;5053008;28;20440;-73
2023/03/07 01:36:28;;;;;;;26.83;12.57;;;1.60;99.90;;;;;;5053066;28;20029;-73
2023/03/07 01:39:05;;;;;;;29.50;12.30;;;1.50;99.90;;;;;;5053310;28;20384;-73
2023/03/07 01:41:32;;;;;;;27.20;13.20;;;1.50;99.90;;;;;;5053496;28;20033;-73
2023/03/07 01:44:04;;;;;;;28.65;12.90;;;1.40;99.90;;;;;;5054261;28;20036;-73
2023/03/07 01:46:41;;;;;;;26.70;12.77;;;1.50;99.90;;;;;;5053503;28;20032;-73
2023/03/07 01:49:16;;;;;;;26.48;11.35;;;1.40;99.90;;;;;;5054148;28;20040;-73
2023/03/07 01:51:46;;;;;;;30.45;12.40;;;1.30;99.90;;;;;;5052837;28;20032;-73
2023/03/07 01:54:16;;;;;;;28.83;13.98;;;1.30;99.90;;;;;;5053389;28;20028;-73
2023/03/07 01:56:42;;;;;;;29.10;12.95;;;1.30;99.90;;;;;;5052730;28;20047;-73
2023/03/07 01:59:08;;;;;;;33.13;13.18;;;1.30;99.90;;;;;;5053965;28;20025;-73
2023/03/07 02:01:35;;;;;;;28.35;12.98;;;1.30;99.90;;;;;;5053971;28;20052;-73
2023/03/07 02:04:09;;;;;;;30.00;12.90;;;1.30;99.90;;;;;;5052613;28;20032;-73
2023/03/07 02:06:37;;;;;;;28.02;13.13;;;1.30;99.90;;;;;;5052469;28;20392;-73
2023/03/07 02:09:11;;;;;;;32.30;14.95;;;1.30;99.90;;;;;;5052643;28;20060;-73
2023/03/07 02:11:39;;;;;;;33.90;13.20;;;1.30;99.90;;;;;;5052708;28;20409;-73
2023/03/07 02:14:05;;;;;;;33.60;14.40;;;1.30;99.90;;;;;;5053896;28;20031;-73
2023/03/07 02:16:30;;;;;;;29.98;12.77;;;1.30;99.90;;;;;;5052534;28;20070;-73
2023/03/07 02:18:56;;;;;;;29.13;13.32;;;1.40;99.90;;;;;;5052512;28;20049;-73
2023/03/07 02:21:28;;;;;;;37.67;14.23;;;1.40;99.90;;;;;;5052456;28;20029;-73
2023/03/07 02:24:26;;;;;;;32.63;13.25;;;1.40;99.90;;;;;;5052498;28;20033;-73
2023/03/07 02:26:52;;;;;;;27.95;12.90;;;1.50;99.90;;;;;;5054186;28;20027;-73
2023/03/07 02:29:18;;;;;;;30.00;13.07;;;1.50;99.90;;;;;;5058438;28;20029;-73
2023/03/07 02:31:44;;;;;;;26.70;12.60;;;1.50;99.90;;;;;;5061345;28;20032;-73
2023/03/07 02:34:27;;;;;;;31.15;12.60;;;1.50;99.90;;;;;;5061449;28;20032;-73
2023/03/07 02:37:05;;;;;;;26.25;12.68;;;1.50;99.90;;;;;;5059856;28;20027;-73
2023/03/07 02:39:32;;;;;;;30.77;12.63;;;1.60;99.90;;;;;;5058580;28;20021;-73
2023/03/07 02:42:10;;;;;;;28.73;12.40;;;1.60;99.90;;;;;;5057937;28;20029;-73
2023/03/07 02:44:36;;;;;;;28.83;13.57;;;1.60;99.90;;;;;;5056861;28;20029;-73
2023/03/07 02:47:01;;;;;;;32.13;13.88;;;1.70;99.90;;;;;;5057538;28;20079;-73
2023/03/07 02:49:27;;;;;;;30.63;13.43;;;1.70;99.90;;;;;;5057555;28;20025;-73
2023/03/07 02:51:56;;;;;;;28.85;14.02;;;1.80;99.90;;;;;;5057627;28;20427;-72
2023/03/07 02:54:22;;;;;;;;;;;1.80;99.90;;;;;;5056691;28;20033;-73
2023/03/07 02:56:47;;;;;;;32.55;12.73;;;1.80;99.90;;;;;;5056409;28;19911;-73
2023/03/07 02:59:13;;;;;;;27.13;13.55;;;1.80;99.90;;;;;;5056306;28;20067;-73
2023/03/07 03:01:39;;;;;;;29.42;12.93;;;1.80;99.90;;;;;;5056062;28;20464;-73
2023/03/07 03:04:04;;;;;;;30.67;13.68;;;1.90;99.90;;;;;;5057218;28;20029;-73
2023/03/07 03:06:30;;;;;;;27.17;12.93;;;1.90;99.90;;;;;;5056055;28;20464;-73
2023/03/07 03:08:55;;;;;;;29.65;13.48;;;1.90;99.90;;;;;;5057370;28;20468;-73
2023/03/07 03:11:21;;;;;;;27.20;12.48;;;2.00;99.90;;;;;;5056999;28;20136;-73
2023/03/07 03:13:47;;;;;;;28.45;13.73;;;2.00;99.90;;;;;;5056899;28;20112;-73
2023/03/07 03:16:13;;;;;;;27.27;13.15;;;2.00;99.90;;;;;;5055686;28;20039;-72
2023/03/07 03:18:38;;;;;;;30.23;12.07;;;2.10;99.90;;;;;;5056891;28;20029;-72
2023/03/07 03:21:11;;;;;;;29.05;12.75;;;2.10;99.90;;;;;;5056838;28;20025;-73
2023/03/07 03:23:37;;;;;;;24.65;12.25;;;2.10;99.90;;;;;;5055635;28;20112;-72
2023/03/07 03:26:06;;;;;;;31.58;14.10;;;2.10;99.90;;;;;;5055587;28;20120;-72
2023/03/07 03:28:36;;;;;;;32.10;13.15;;;2.10;99.90;;;;;;5056552;28;20384;-72
2023/03/07 03:31:08;;;;;;;30.65;13.57;;;2.10;99.90;;;;;;5057362;28;20021;-72
2023/03/07 03:33:33;;;;;;;31.27;13.75;;;2.10;99.90;;;;;;5056624;28;20036;-73
2023/03/07 03:36:04;;;;;;;27.25;13.05;;;2.10;99.90;;;;;;5055717;28;20029;-73
2023/03/07 03:38:29;;;;;;;26.10;12.30;;;2.10;99.90;;;;;;5055259;28;20021;-72
2023/03/07 03:40:55;;;;;;;31.85;13.18;;;2.10;99.90;;;;;;5054449;28;20025;-72
2023/03/07 03:43:21;;;;;;;30.63;13.50;;;2.10;99.90;;;;;;5055132;28;20063;-72
2023/03/07 03:45:57;;;;;;;30.48;13.48;;;2.10;99.90;;;;;;5056347;28;20456;-73
2023/03/07 03:48:23;;;;;;;34.65;13.48;;;2.00;99.90;;;;;;5056645;28;20029;-72
2023/03/07 03:50:49;;;;;;;30.73;13.55;;;2.10;99.90;;;;;;5056677;28;20496;-72
2023/03/07 03:53:14;;;;;;;29.92;12.43;;;2.00;99.90;;;;;;5055984;28;20127;-73
2023/03/07 03:55:40;;;;;;;25.60;11.98;;;2.00;99.90;;;;;;5054925;28;20041;-72
2023/03/07 03:58:06;;;;;;;35.95;13.27;;;2.00;99.90;;;;;;5054522;28;20032;-73
2023/03/07 04:00:32;;;;;;;29.95;12.85;;;2.00;99.90;;;;;;5056210;28;20025;-72
2023/03/07 04:02:57;;;;;;;28.00;12.77;;;2.00;99.90;;;;;;5056344;28;20376;-72
2023/03/07 04:05:23;;;;;;;33.35;12.50;;;2.10;99.90;;;;;;5056050;28;20025;-72
2023/03/07 04:07:49;;;;;;;32.92;13.48;;;2.00;99.90;;;;;;5054722;28;20104;-72
2023/03/07 04:10:15;;;;;;;25.95;11.73;;;2.00;99.90;;;;;;5055129;28;20529;-72
2023/03/07 04:12:41;;;;;;;35.90;13.10;;;2.00;99.90;;;;;;5056060;28;20596;-73
2023/03/07 04:15:07;;;;;;;28.95;13.32;;;2.00;99.90;;;;;;5054545;28;20464;-72
2023/03/07 04:17:34;;;;;;;30.98;14.50;;;2.00;99.90;;;;;;5055825;28;20025;-73
2023/03/07 04:20:00;;;;;;;28.75;12.98;;;2.00;99.90;;;;;;5054482;28;20025;-72
2023/03/07 04:22:25;;;;;;;27.00;12.38;;;2.00;99.90;;;;;;5055427;28;20036;-73
2023/03/07 04:24:51;;;;;;;33.58;14.23;;;2.00;99.90;;;;;;5055853;28;20021;-72
2023/03/07 04:27:17;;;;;;;30.60;13.95;;;2.00;99.90;;;;;;5054342;28;20120;-72
2023/03/07 04:29:42;;;;;;;30.70;14.63;;;2.00;99.90;;;;;;5055278;28;20441;-72
2023/03/07 04:32:08;;;;;;;31.13;13.52;;;2.00;99.90;;;;;;5055127;28;20516;-72
2023/03/07 04:34:34;;;;;;;29.77;13.00;;;2.00;99.90;;;;;;5054160;28;20025;-72
2023/03/07 04:36:59;;;;;;;29.13;12.95;;;2.00;99.90;;;;;;5054141;28;20059;-72
2023/03/07 04:39:25;;;;;;;29.38;14.40;;;2.00;99.90;;;;;;5054136;28;20046;-73
2023/03/07 04:41:50;;;;;;;34.42;13.27;;;2.00;99.90;;;;;;5054068;28;20029;-73
2023/03/07 04:44:16;;;;;;;32.33;13.52;;;2.00;99.90;;;;;;5055777;28;20036;-73
2023/03/07 04:46:42;;;;;;;29.60;13.50;;;2.10;99.90;;;;;;5055123;28;20100;-72
2023/03/07 04:49:08;;;;;;;29.75;13.93;;;2.10;99.90;;;;;;5055252;28;20100;-72
2023/03/07 04:51:33;;;;;;;27.63;13.88;;;2.10;99.90;;;;;;5054423;28;20098;-72
2023/03/07 04:53:59;;;;;;;32.25;14.50;;;2.00;99.90;;;;;;5053561;28;20135;-72
2023/03/07 04:56:25;;;;;;;31.60;13.85;;;2.00;99.90;;;;;;5054793;28;20474;-72
2023/03/07 04:58:50;;;;;;;33.25;13.55;;;2.00;99.90;;;;;;5055346;28;20119;-72
2023/03/07 05:01:16;;;;;;;34.92;15.20;;;2.00;99.90;;;;;;5054982;28;20025;-72
2023/03/07 05:03:42;;;;;;;27.38;13.68;;;2.00;99.90;;;;;;5053866;28;20384;-73
2023/03/07 05:06:12;;;;;;;30.67;14.05;;;2.00;99.90;;;;;;5054889;28;20083;-73
2023/03/07 05:08:38;;;;;;;27.88;12.75;;;2.00;99.90;;;;;;5054217;28;20025;-73
2023/03/07 05:11:04;;;;;;;31.42;12.98;;;2.10;99.90;;;;;;5053267;28;20377;-73
2023/03/07 05:13:29;;;;;;;31.52;14.38;;;2.10;99.90;;;;;;5054387;28;20338;-73
2023/03/07 05:15:57;;;;;;;33.20;14.02;;;2.10;99.90;;;;;;5054685;28;20028;-72
2023/03/07 05:18:23;;;;;;;33.80;13.88;;;2.10;99.90;;;;;;5055018;28;20101;-73
2023/03/07 05:20:49;;;;;;;28.38;13.43;;;2.10;99.90;;;;;;5053054;28;20063;-71
2023/03/07 05:23:15;;;;;;;30.67;14.15;;;2.10;99.90;;;;;;5053261;28;20029;-72
2023/03/07 05:25:41;;;;;;;30.88;14.18;;;2.10;99.90;;;;;;5054411;28;20024;-73
2023/03/07 05:28:07;;;;;;;28.00;14.15;;;2.10;99.90;;;;;;5053953;28;20029;-73
2023/03/07 05:30:33;;;;;;;30.02;13.30;;;2.10;99.90;;;;;;5052244;28;20025;-73
2023/03/07 05:32:58;;;;;;;29.42;13.15;;;2.10;99.90;;;;;;5052136;28;20025;-72
2023/03/07 05:35:24;;;;;;;28.20;14.05;;;2.10;99.90;;;;;;5052106;28;20468;-73
2023/03/07 05:37:51;;;;;;;36.90;14.52;;;2.20;99.90;;;;;;5053863;28;20383;-73
2023/03/07 05:40:17;;;;;;;31.88;13.52;;;2.20;99.90;;;;;;5053822;28;20029;-72
2023/03/07 05:42:43;;;;;;;33.42;13.45;;;2.10;99.90;;;;;;5054259;28;20083;-72
2023/03/07 05:45:10;;;;;;;35.63;15.68;;;2.10;99.90;;;;;;5054149;28;20104;-73
2023/03/07 05:47:36;;;;;;;34.47;14.68;;;2.10;99.90;;;;;;5052945;28;20025;-72
2023/03/07 05:50:01;;;;;;;33.45;14.32;;;2.10;99.90;;;;;;5054081;28;20025;-73
2023/03/07 05:52:27;;;;;;;31.30;14.02;;;2.10;99.90;;;;;;5054203;28;20492;-71
2023/03/07 05:54:53;;;;;;;39.75;16.83;;;2.10;99.90;;;;;;5054359;28;20036;-71
2023/03/07 05:57:19;;;;;;;32.85;15.45;;;2.10;99.90;;;;;;5053900;28;20017;-71
2023/03/07 05:59:45;;;;;;;30.95;15.05;;;2.10;99.90;;;;;;5052661;28;20028;-71
2023/03/07 06:02:10;;;;;;;30.33;14.50;;;2.10;99.90;;;;;;5052667;28;20124;-71
2023/03/07 06:04:36;;;;;;;31.15;13.75;;;2.20;99.90;;;;;;5052510;28;20060;-71
2023/03/07 06:07:02;;;;;;;28.60;13.68;;;2.20;99.90;;;;;;5053780;28;20075;-71
2023/03/07 06:09:27;;;;;;;33.15;14.38;;;2.30;99.90;;;;;;5053904;28;20021;-71
2023/03/07 06:11:53;;;;;;;33.25;14.02;;;2.20;99.90;;;;;;5052121;28;20144;-71
2023/03/07 06:14:20;;;;;;;29.48;13.15;;;2.30;99.90;;;;;;5053411;28;20045;-71
2023/03/07 06:16:46;;;;;;;29.88;13.57;;;2.30;99.90;;;;;;5052543;28;20029;-71
2023/03/07 06:19:11;;;;;;;30.45;13.98;;;2.30;99.90;;;;;;5052502;28;20381;-71
2023/03/07 06:21:37;;;;;;;27.60;14.38;;;2.40;99.90;;;;;;5054154;28;20035;-72
2023/03/07 06:24:04;;;;;;;29.50;14.13;;;2.40;99.90;;;;;;5053524;28;20032;-77
2023/03/07 06:26:30;;;;;;;27.65;13.75;;;2.50;99.90;;;;;;5056891;28;20032;-72
2023/03/07 06:28:56;;;;;;;26.20;12.93;;;2.50;99.90;;;;;;5054850;28;20025;-71
2023/03/07 06:31:21;;;;;;;29.52;13.57;;;2.50;99.90;;;;;;5053902;28;20036;-71
2023/03/07 06:33:47;;;;;;;32.45;13.90;;;2.60;99.90;;;;;;5053345;28;20061;-71
2023/03/07 06:36:15;;;;;;;32.47;14.43;;;2.60;99.90;;;;;;5053557;28;20025;-71
2023/03/07 06:38:41;;;;;;;30.35;13.73;;;2.70;99.90;;;;;;5052474;28;20379;-71
2023/03/07 06:41:07;;;;;;;35.47;14.80;;;2.80;99.90;;;;;;5052244;28;20029;-71
2023/03/07 06:43:33;;;;;;;35.13;14.52;;;2.80;99.90;;;;;;5052237;28;20029;-71
2023/03/07 06:45:59;;;;;;;27.60;13.23;;;2.90;99.90;;;;;;5052279;28;20057;-71
2023/03/07 06:48:25;;;;;;;31.45;14.43;;;2.90;99.90;;;;;;5052267;28;20091;-71
2023/03/07 06:50:50;;;;;;;29.65;14.70;;;3.00;99.90;;;;;;5053738;28;20509;-71
2023/03/07 06:53:16;;;;;;;30.73;14.25;;;3.00;99.90;;;;;;5052179;28;20464;-71
2023/03/07 06:55:42;;;;;;;24.70;13.48;;;3.10;99.90;;;;;;5053484;28;20036;-71
2023/03/07 06:58:07;;;;;;;37.45;13.80;;;3.20;99.90;;;;;;5052962;28;20483;-71
2023/03/07 07:00:33;;;;;;;34.63;14.38;;;3.20;99.90;;;;;;5051813;28;20470;-71
2023/03/07 07:02:59;;;;;;;31.08;15.07;;;3.30;99.90;;;;;;5052058;28;20029;-71
2023/03/07 07:05:25;;;;;;;32.15;14.68;;;3.40;99.90;;;;;;5052569;28;20024;-71
2023/03/07 07:07:50;;;;;;;31.30;14.90;;;3.40;99.90;;;;;;5052092;28;20025;-71
2023/03/07 07:10:16;;;;;;;28.92;14.27;;;3.50;99.90;;;;;;5052246;28;20029;-71
2023/03/07 07:12:42;;;;;;;31.67;14.00;;;3.50;99.90;;;;;;5052423;28;20057;-71
2023/03/07 07:15:08;;;;;;;29.55;13.23;;;3.60;99.90;;;;;;5052767;28;20029;-71
2023/03/07 07:17:34;;;;;;;30.15;13.70;;;3.60;99.90;;;;;;5055799;28;20052;-71
2023/03/07 07:20:03;;;;;;;32.17;14.68;;;3.70;99.90;;;;;;5057037;28;20025;-71
2023/03/07 07:22:29;;;;;;;29.50;14.73;;;3.80;99.90;;;;;;5056877;28;20021;-71
2023/03/07 07:24:55;;;;;;;32.60;13.13;;;3.90;99.90;;;;;;5055527;28;20025;-72
2023/03/07 07:27:21;;;;;;;36.90;13.40;;;4.00;99.90;;;;;;5056755;28;20029;-71
2023/03/07 07:29:46;;;;;;;28.42;13.90;;;4.10;99.90;;;;;;5055585;28;20056;-71
2023/03/07 07:32:12;;;;;;;29.85;13.77;;;4.20;99.90;;;;;;5056840;28;20037;-71
2023/03/07 07:34:38;;;;;;;29.73;14.02;;;4.30;99.90;;;;;;5056839;28;20372;-71
2023/03/07 07:37:03;;;;;;;28.17;14.10;;;4.50;99.90;;;;;;5056772;28;20453;-71
2023/03/07 07:39:29;;;;;;;31.75;14.68;;;4.50;99.90;;;;;;5056242;28;20036;-72
2023/03/07 07:41:55;;;;;;;30.92;13.80;;;4.60;99.90;;;;;;5056505;28;20431;-71
2023/03/07 07:44:20;;;;;;;23.35;12.45;;;4.70;99.90;;;;;;5056498;28;20061;-72
2023/03/07 07:46:46;;;;;;;28.15;13.18;;;4.80;99.90;;;;;;5055423;28;20021;-71
2023/03/07 07:49:12;;;;;;;27.15;13.00;;;4.90;99.90;;;;;;5056188;28;20025;-71
2023/03/07 07:51:39;;;;;;;23.55;12.80;;;5.00;99.90;;;;;;5056433;28;20029;-72
2023/03/07 07:54:06;;;;;;;30.55;12.52;;;5.10;99.90;;;;;;5055053;28;20029;-72
2023/03/07 07:56:31;;;;;;;24.25;11.80;;;5.20;99.90;;;;;;5056263;28;20108;-71
2023/03/07 07:58:57;;;;;;;24.05;12.15;;;5.30;99.90;;;;;;5056070;28;20060;-71
2023/03/07 08:01:24;;;;;;;30.05;13.60;;;5.50;99.90;;;;;;5056842;28;20025;-72
2023/03/07 08:03:49;;;;;;;23.60;11.20;;;5.60;99.90;;;;;;5057763;28;20029;-72
2023/03/07 08:06:20;;;;;;;29.35;12.75;;;5.70;99.90;;;;;;5056169;28;20381;-72
2023/03/07 08:08:47;;;;;;;21.20;11.27;;;5.90;99.90;;;;;;5058811;28;20108;-72
2023/03/07 08:11:13;;;;;;;22.08;10.85;;;6.10;99.90;;;;;;5057659;28;20049;-71
2023/03/07 08:13:39;;;;;;;32.55;12.20;;;6.30;99.90;;;;;;5059477;28;20051;-71
2023/03/07 08:16:16;;;;;;;21.80;10.48;;;6.60;99.90;;;;;;5059452;28;20051;-72
2023/03/07 08:18:47;;;;;;;27.63;10.65;;;6.80;99.90;;;;;;5059547;28;20021;-72
2023/03/07 08:21:12;;;;;;;24.00;11.15;;;7.30;99.90;;;;;;5059453;28;20429;-72
2023/03/07 08:23:39;;;;;;;27.35;11.52;;;7.80;98.90;;;;;;5057172;28;20036;-72
2023/03/07 08:26:06;;;;;;;19.60;9.07;;;8.40;95.60;;;;;;5057391;28;20033;-71
2023/03/07 08:28:32;;;;;;;15.27;9.32;;;9.00;91.60;;;;;;5056137;28;20045;-72
2023/03/07 08:31:04;;;;;;;15.65;8.52;;;9.40;83.70;;;;;;5057360;28;20044;-72
2023/03/07 08:33:30;;;;;;;14.52;8.05;;;9.50;76.80;;;;;;5057379;28;20033;-71
2023/03/07 08:35:58;;;;;;;13.70;7.70;;;9.30;71.20;;;;;;5057493;28;20052;-72
2023/03/07 08:38:25;;;;;;;13.00;7.55;;;9.00;69.20;;;;;;5058357;28;20112;-72
2023/03/07 08:40:51;;;;;;;11.77;7.00;;;8.90;70.10;;;;;;5059054;28;20114;-71
2023/03/07 08:43:16;;;;;;;15.23;7.40;;;8.70;70.10;;;;;;5058402;28;20028;-72
2023/03/07 08:45:42;;;;;;;16.02;7.72;;;8.80;68.70;;;;;;5057552;28;20097;-72
2023/03/07 08:48:09;;;;;;;14.13;7.65;;;8.70;68.20;;;;;;5058224;28;20071;-72
2023/03/07 08:50:35;;;;;;;14.15;7.68;;;8.70;67.90;;;;;;5057660;28;20028;-71
2023/03/07 08:53:02;;;;;;;14.55;7.75;;;8.80;67.60;;;;;;5058075;28;20073;-71
2023/03/07 08:55:28;;;;;;;14.80;7.85;;;8.80;66.80;;;;;;5056925;28;20479;-72
2023/03/07 08:57:53;;;;;;;14.73;8.18;;;8.90;67.00;;;;;;5058353;28;20025;-72
2023/03/07 09:00:19;;;;;;;13.27;7.18;;;9.10;64.90;;;;;;5057810;28;20025;-72
2023/03/07 09:02:45;;;;;;;11.32;6.57;;;9.00;64.60;;;;;;5057772;28;20028;-71
2023/03/07 09:05:11;;;;;;;12.93;7.07;;;9.20;64.90;;;;;;5055827;28;20029;-71
2023/03/07 09:07:36;;;;;;;14.63;6.65;;;9.40;63.30;;;;;;5056852;28;20037;-72
2023/03/07 09:10:04;;;;;;;12.90;7.40;;;9.40;63.10;;;;;;5057563;28;20444;-71
2023/03/07 09:12:31;;;;;;;12.52;6.45;;;9.50;62.40;;;;;;5055467;28;20052;-71
2023/03/07 09:14:56;;;;;;;12.52;7.47;;;9.60;62.40;;;;;;5058054;28;20017;-72
2023/03/07 09:17:22;;;;;;;12.48;6.72;;;9.80;60.40;;;;;;5056822;28;20045;-71
2023/03/07 09:19:49;;;;;;;18.92;7.72;;;9.90;60.70;;;;;;5056975;28;20460;-71
2023/03/07 09:22:15;;;;;;;11.00;6.95;;;10.00;60.40;;;;;;5055487;28;20036;-71
2023/03/07 09:24:41;;;;;;;16.42;7.75;;;9.80;59.60;;;;;;5057751;28;20084;-71
2023/03/07 09:27:06;;;;;;;13.57;7.22;;;9.80;60.40;;;;;;5055494;28;20078;-71
2023/03/07 09:29:32;;;;;;;11.82;6.85;;;9.80;60.00;;;;;;5055601;28;20062;-71
2023/03/07 09:31:57;;;;;;;10.52;7.07;;;9.80;59.70;;;;;;5056820;28;20037;-71
2023/03/07 09:34:23;;;;;;;11.80;6.75;;;10.10;59.20;;;;;;5056730;28;20021;-71
2023/03/07 09:36:51;;;;;;;13.02;7.15;;;10.20;58.10;;;;;;5057649;28;20028;-71
2023/03/07 09:39:16;;;;;;;11.23;6.93;;;10.50;57.70;;;;;;5056578;28;20051;-71
2023/03/07 09:41:55;;;;;;;13.32;7.35;;;10.70;56.60;;;;;;5055589;28;20025;-71
2023/03/07 09:45:14;;;;;;;13.60;6.80;;;10.80;56.50;;;;;;5055584;28;20491;-71
2023/03/07 09:47:42;;;;;;;13.02;7.50;;;11.40;53.90;;;;;;5012826;28;20034;-71
2023/03/07 09:50:16;;;;;;;13.35;7.85;;;11.70;53.10;;;;;;5012306;28;20030;-71
2023/03/07 09:52:42;;;;;;;12.80;7.13;;;11.90;52.60;;;;;;5031446;28;20127;-71
2023/03/07 09:55:13;;;;;;;11.93;6.93;;;11.70;52.30;;;;;;5054718;28;20075;-71
2023/03/07 09:57:50;;;;;;;11.13;7.18;;;11.90;52.30;;;;;;5054521;28;20028;-71
2023/03/07 10:00:24;;;;;;;11.98;7.15;;;11.90;51.50;;;;;;5053183;28;20035;-71
2023/03/07 10:03:05;;;;;;;16.88;8.48;;;12.00;51.80;;;;;;5054085;28;20043;-72
2023/03/07 10:05:35;;;;;;;12.75;7.32;;;12.50;50.80;;;;;;5053460;28;20119;-71
2023/03/07 10:08:03;;;;;;;14.85;8.25;;;12.10;50.40;;;;;;5055744;28;20138;-71
2023/03/07 10:10:39;;;;;;;13.95;7.47;;;11.90;51.60;;;;;;5053667;28;20483;-71
2023/03/07 10:13:35;;;;;;;13.07;7.30;;;12.10;50.80;;;;;;5053601;28;20049;-71
2023/03/07 10:16:08;;;;;;;15.02;8.38;;;12.20;50.30;;;;;;5054561;28;20033;-71
2023/03/07 10:19:02;;;;;;;14.02;8.20;;;11.90;51.50;;;;;;5053416;28;20049;-70
2023/03/07 10:21:45;;;;;;;14.40;8.50;;;11.60;51.70;;;;;;5053568;28;20021;-71
2023/03/07 10:24:32;;;;;;;15.32;8.35;;;11.50;52.30;;;;;;5054128;28;20086;-70
2023/03/07 10:27:06;;;;;;;15.32;8.20;;;11.30;52.40;;;;;;5055012;28;20036;-71
2023/03/07 10:29:48;;;;;;;14.30;7.68;;;11.40;52.60;;;;;;5056635;28;20033;-72
2023/03/07 10:32:25;;;;;;;13.02;7.50;;;11.70;52.10;;;;;;5057265;28;20530;-71
2023/03/07 10:35:01;;;;;;;14.27;7.22;;;11.80;51.70;;;;;;5054799;28;20047;-70
2023/03/07 10:37:49;;;;;;;12.02;8.07;;;12.30;51.70;;;;;;5055338;28;20460;-71
2023/03/07 10:40:47;;;;;;;15.68;8.52;;;13.00;49.40;;;;;;5054070;28;20060;-71
2023/03/07 10:43:32;;;;;;;15.93;7.93;;;13.10;48.70;;;;;;5050126;28;20072;-70
2023/03/07 10:46:00;;;;;;;16.20;8.25;;;13.50;48.80;;;;;;5053688;28;20453;-70
2023/03/07 10:48:28;;;;;;;15.57;8.70;;;13.80;47.90;;;;;;5052631;28;20112;-70
2023/03/07 10:51:06;;;;;;;14.98;7.93;;;14.30;46.60;;;;;;5055909;28;20124;-70
2023/03/07 10:53:35;;;;;;;14.85;8.52;;;15.00;45.90;;;;;;5056251;28;20041;-70
2023/03/07 10:56:11;;;;;;;13.00;8.07;;;15.00;44.50;;;;;;5057363;28;20033;-71
2023/03/07 10:58:36;;;;;;;18.40;8.48;;;14.40;44.60;;;;;;5057929;28;20405;-70
2023/03/07 11:01:05;;;;;;;13.38;8.18;;;13.50;46.40;;;;;;5057340;28;20052;-70
2023/03/07 11:03:43;;;;;;;12.98;8.38;;;13.70;46.60;;;;;;5057307;28;20033;-71
2023/03/07 11:06:33;;;;;;;17.95;8.82;;;13.50;46.30;;;;;;5057418;28;20037;-70
2023/03/07 11:09:14;;;;;;;12.15;7.80;;;13.70;46.90;;;;;;5056908;28;20113;-70
2023/03/07 11:11:56;;;;;;;14.68;7.80;;;14.10;46.00;;;;;;5057444;28;20501;-71
2023/03/07 11:14:23;;;;;;;19.60;8.98;;;14.70;45.20;;;;;;5055590;28;20040;-71
2023/03/07 11:17:01;;;;;;;12.55;7.63;;;15.80;43.30;;;;;;5055612;28;20043;-71
2023/03/07 11:19:37;;;;;;;14.60;8.85;;;16.40;42.20;;;;;;5055478;28;20453;-70
2023/03/07 11:22:18;;;;;;;15.50;8.98;;;16.30;40.70;;;;;;5055922;28;20033;-70
2023/03/07 11:24:58;;;;;;;13.60;8.63;;;16.50;41.00;;;;;;5057016;28;20067;-71
2023/03/07 11:27:54;;;;;;;12.95;8.32;;;16.50;40.20;;;;;;5057086;28;20031;-70
2023/03/07 11:30:22;;;;;;;15.65;9.35;;;15.80;42.10;;;;;;5042781;28;20069;-70
2023/03/07 11:33:06;;;;;;;16.48;9.07;;;16.70;41.20;;;;;;5055293;28;20127;-70
2023/03/07 11:36:00;;;;;;;12.15;8.00;;;17.40;39.30;;;;;;5055269;28;20029;-71
2023/03/07 11:38:51;;;;;;;15.40;8.73;;;18.10;38.30;;;;;;5056534;28;20033;-71
2023/03/07 11:41:26;;;;;;;14.30;9.85;;;18.90;36.80;;;;;;5056449;28;20033;-71
2023/03/07 11:44:17;;;;;;;16.15;8.05;;;18.10;37.10;;;;;;5056402;28;20389;-71
2023/03/07 11:46:43;;;;;;;14.30;9.13;;;17.30;37.80;;;;;;5056399;28;20056;-71
2023/03/07 11:49:23;;;;;;;15.38;9.15;;;16.70;38.80;;;;;;5056078;28;20064;-70
2023/03/07 11:52:06;;;;;;;17.50;8.75;;;16.20;39.50;;;;;;5056485;28;20424;-71
2023/03/07 11:54:59;;;;;;;13.90;9.00;;;15.70;40.00;;;;;;5056822;28;20513;-70
2023/03/07 11:57:54;;;;;;;12.48;8.00;;;15.50;40.90;;;;;;5056414;28;20024;-70
2023/03/07 12:00:32;;;;;;;14.93;9.38;;;16.00;40.00;;;;;;5041645;28;20120;-71
2023/03/07 12:03:00;;;;;;;13.40;8.27;;;16.60;39.90;;;;;;5055691;28;20575;-70
2023/03/07 12:05:35;;;;;;;13.55;9.05;;;16.40;39.80;;;;;;5055719;28;20029;-70
2023/03/07 12:08:20;;;;;;;13.60;8.57;;;15.90;40.20;;;;;;5054739;28;20029;-70
2023/03/07 12:11:15;;;;;;;14.60;7.90;;;16.30;40.80;;;;;;5054630;28;20025;-70
2023/03/07 12:13:55;;;;;;;14.23;9.18;;;16.70;40.40;;;;;;5046377;28;20501;-71
2023/03/07 12:16:41;;;;;;;15.50;9.55;;;16.80;40.20;;;;;;5054493;28;20025;-71
2023/03/07 12:19:31;;;;;;;13.95;9.25;;;18.50;40.40;;;;;;5055907;28;20112;-70
2023/03/07 12:22:15;;;;;;;12.25;8.65;;;17.80;38.70;;;;;;5055582;28;20068;-70
2023/03/07 12:25:01;;;;;;;14.10;9.15;;;17.50;39.10;;;;;;5054352;28;20053;-70
2023/03/07 12:27:37;;;;;;;20.45;9.90;;;17.40;39.60;;;;;;5054661;28;20380;-70
2023/03/07 12:30:13;;;;;;;16.17;10.10;;;16.70;41.30;;;;;;5055528;28;20451;-70
2023/03/07 12:32:38;;;;;;;15.98;10.48;;;15.70;44.10;;;;;;5055397;28;20029;-70
2023/03/07 12:35:29;;;;;;;19.42;9.32;;;15.00;45.90;;;;;;5055755;28;20025;-70
2023/03/07 12:38:04;;;;;;;13.07;9.25;;;15.50;46.10;;;;;;5055377;28;20021;-70
2023/03/07 12:40:50;;;;;;;16.90;9.55;;;16.60;45.30;;;;;;5055469;28;20021;-70
2023/03/07 12:43:26;;;;;;;14.50;8.93;;;17.40;43.00;;;;;;5054212;28;20033;-70
2023/03/07 12:46:01;;;;;;;14.15;9.07;;;16.90;43.40;;;;;;5055243;28;20481;-70
2023/03/07 12:48:33;;;;;;;13.45;9.50;;;16.00;43.20;;;;;;5054083;28;20465;-70
2023/03/07 12:51:29;;;;;;;14.90;9.80;;;15.50;44.40;;;;;;5055255;28;20029;-70